Time;durP1;ratioP1;P1;durP2;ratioP2;P2;SDS_P1;SDS_P2;PMS_P1;PMS_P2;Temp;Humidity;BMP_temperature;BMP_pressure;BME280_temperature;BME280_humidity;BME280_pressure;Samples;Min_cycle;Max_cycle;Signal;HPM_P1;HPM_P2
2023/04/02 00:00:03;;;;;;;2.97;2.33;;;;;20.70;99712.00;;;;2055899;28;20215;-75
2023/04/02 00:01:46;;;;;;;2.43;2.03;;;;;20.70;99720.00;;;;2063067;28;20218;-75
2023/04/02 00:02:53;;;;;;;1.98;1.75;;;;;20.70;99730.00;;;;2056309;28;20213;-75
2023/04/02 00:03:58;;;;;;;2.40;2.20;;;;;20.70;99734.00;;;;2070665;28;20214;-76
2023/04/02 00:05:19;;;;;;;2.30;2.10;;;;;20.70;99743.00;;;;2071330;28;20276;-75
2023/04/02 00:06:31;;;;;;;2.05;1.83;;;;;20.70;99741.00;;;;2070210;28;20251;-75
2023/04/02 00:07:32;;;;;;;2.10;1.88;;;;;20.70;99741.00;;;;2071228;28;20220;-74
2023/04/02 00:08:42;;;;;;;2.17;1.73;;;;;20.70;99751.00;;;;2070616;28;20245;-74
2023/04/02 00:09:42;;;;;;;1.80;1.70;;;;;20.70;99750.00;;;;2070783;28;20731;-76
2023/04/02 00:10:52;;;;;;;2.07;1.87;;;;;20.70;99752.00;;;;2069770;28;20231;-75
2023/04/02 00:11:55;;;;;;;1.70;1.60;;;;;20.70;99735.00;;;;2070706;28;20217;-75
2023/04/02 00:13:30;;;;;;;2.03;1.80;;;;;20.70;99755.00;;;;2069859;28;20218;-76
2023/04/02 00:14:32;;;;;;;1.80;1.70;;;;;20.70;99755.00;;;;2056382;28;20222;-76
2023/04/02 00:15:32;;;;;;;2.08;1.65;;;;;20.70;99737.00;;;;2061933;28;20218;-75
2023/04/02 00:16:33;;;;;;;1.53;1.43;;;;;20.70;99756.00;;;;2062569;28;20721;-75
2023/04/02 00:17:33;;;;;;;2.03;1.70;;;;;20.70;99759.00;;;;2061958;28;20769;-72
2023/04/02 00:18:35;;;;;;;1.70;1.60;;;;;20.70;99764.00;;;;2070778;28;20697;-72
2023/04/02 00:19:47;;;;;;;1.70;1.60;;;;;20.70;99765.00;;;;2070763;28;20206;-73
2023/04/02 00:20:51;;;;;;;1.70;1.50;;;;;20.60;99773.00;;;;2070779;28;20214;-73
2023/04/02 00:21:52;;;;;;;1.70;1.50;;;;;20.60;99769.00;;;;2070475;28;20693;-73
2023/04/02 00:22:53;;;;;;;2.13;1.40;;;;;20.60;99777.00;;;;2069893;28;20210;-73
2023/04/02 00:23:54;;;;;;;1.60;1.50;;;;;20.60;99772.00;;;;2070838;28;20254;-73
2023/04/02 00:24:55;;;;;;;2.00;1.75;;;;;20.60;99779.00;;;;2070702;28;20221;-73
2023/04/02 00:25:55;;;;;;;1.63;1.43;;;;;20.60;99781.00;;;;2070712;28;20225;-73
2023/04/02 00:26:55;;;;;;;1.90;1.80;;;;;20.60;99783.00;;;;2069816;28;20264;-73
2023/04/02 00:27:56;;;;;;;1.50;1.30;;;;;20.60;99788.00;;;;2070663;28;20231;-73
2023/04/02 00:28:57;;;;;;;1.73;1.43;;;;;20.60;99784.00;;;;2071448;28;20602;-73
2023/04/02 00:29:58;;;;;;;1.77;1.40;;;;;20.60;99790.00;;;;2069946;28;20225;-73
2023/04/02 00:30:58;;;;;;;1.70;1.60;;;;;20.60;99791.00;;;;2070712;28;20217;-73
2023/04/02 00:31:58;;;;;;;1.80;1.60;;;;;20.60;99791.00;;;;2068673;28;20661;-73
2023/04/02 00:32:59;;;;;;;1.50;1.40;;;;;20.60;99802.00;;;;2071236;28;20218;-73
2023/04/02 00:34:00;;;;;;;1.60;1.50;;;;;20.60;99797.00;;;;2062000;28;20297;-72
2023/04/02 00:35:00;;;;;;;1.50;1.40;;;;;20.60;99799.00;;;;2064307;28;20269;-72
2023/04/02 00:36:01;;;;;;;2.03;1.53;;;;;20.60;99803.00;;;;2072328;28;20721;-73
2023/04/02 00:37:01;;;;;;;1.60;1.33;;;;;20.60;99809.00;;;;2071236;28;20594;-73
2023/04/02 00:38:01;;;;;;;1.83;1.60;;;;;20.60;99809.00;;;;2072371;28;20584;-73
2023/04/02 00:39:03;;;;;;;1.53;1.27;;;;;20.60;99806.00;;;;2070212;28;20218;-73
2023/04/02 00:40:26;;;;;;;1.85;1.60;;;;;20.60;99780.00;;;;2072445;28;20268;-73
2023/04/02 00:41:34;;;;;;;1.58;1.48;;;;;20.60;99820.00;;;;2070958;28;20611;-73
2023/04/02 00:42:38;;;;;;;2.75;1.60;;;;;20.60;99818.00;;;;2072296;28;20289;-73
2023/04/02 00:43:43;;;;;;;1.83;1.60;;;;;20.60;99821.00;;;;2062732;28;20203;-71
2023/04/02 00:44:44;;;;;;;1.25;1.15;;;;;20.60;99826.00;;;;2057589;28;20218;-73
2023/04/02 00:45:49;;;;;;;1.70;1.60;;;;;20.60;99832.00;;;;2064463;28;20645;-73
2023/04/02 00:46:49;;;;;;;1.63;1.52;;;;;20.60;99825.00;;;;2056519;28;20215;-73
2023/04/02 00:47:50;;;;;;;1.70;1.60;;;;;20.60;99828.00;;;;2064914;28;20270;-72
2023/04/02 00:48:59;;;;;;;1.33;1.23;;;;;20.50;99833.00;;;;2071571;28;20202;-73
2023/04/02 00:50:10;;;;;;;1.42;1.25;;;;;20.60;99828.00;;;;2072110;28;20214;-73
2023/04/02 00:51:14;;;;;;;1.80;1.70;;;;;20.60;99830.00;;;;2056624;28;20346;-73
2023/04/02 00:52:20;;;;;;;1.80;1.40;;;;;20.60;99832.00;;;;2063944;28;20218;-73
2023/04/02 00:53:25;;;;;;;1.50;1.40;;;;;20.50;99831.00;;;;2054856;28;20211;-73
2023/04/02 00:54:28;;;;;;;1.70;1.60;;;;;20.50;99838.00;;;;2057083;28;20238;-73
2023/04/02 00:55:34;;;;;;;1.50;1.23;;;;;20.60;99836.00;;;;2063136;28;20222;-73
2023/04/02 00:56:39;;;;;;;1.77;1.17;;;;;20.50;99835.00;;;;2067090;28;20262;-73
2023/04/02 00:57:43;;;;;;;1.45;1.30;;;;;20.50;99860.00;;;;2055259;28;20298;-73
2023/04/02 00:58:44;;;;;;;1.67;1.58;;;;;20.60;99852.00;;;;2051448;28;20759;-73
2023/04/02 00:59:59;;;;;;;1.40;1.30;;;;;20.50;99851.00;;;;2052546;28;20204;-73
2023/04/02 01:01:00;;;;;;;1.35;1.25;;;;;20.60;99866.00;;;;2064026;28;20214;-73
2023/04/02 01:02:21;;;;;;;1.30;1.20;;;;;20.50;99850.00;;;;2055710;28;20551;-73
2023/04/02 01:03:21;;;;;;;1.67;1.50;;;;;20.60;99855.00;;;;2058830;28;20213;-74
2023/04/02 01:04:40;;;;;;;1.63;1.50;;;;;20.50;99854.00;;;;2064511;28;20277;-74
2023/04/02 01:05:41;;;;;;;1.20;1.10;;;;;20.50;99865.00;;;;2064582;28;20284;-74
2023/04/02 01:06:42;;;;;;;1.30;1.20;;;;;20.50;99858.00;;;;2070459;28;20221;-74
2023/04/02 01:08:19;;;;;;;1.15;1.00;;;;;20.50;99866.00;;;;2063430;28;20214;-74
2023/04/02 01:09:45;;;;;;;3.10;1.40;;;;;20.50;99840.00;;;;2070430;28;20206;-74
2023/04/02 01:11:03;;;;;;;1.73;1.30;;;;;20.50;99863.00;;;;2071842;28;20217;-73
2023/04/02 01:12:15;;;;;;;1.65;1.20;;;;;20.50;99874.00;;;;2070753;28;20214;-74
2023/04/02 01:13:30;;;;;;;1.42;1.25;;;;;20.50;99872.00;;;;2072597;28;20280;-73
2023/04/02 01:14:51;;;;;;;1.35;1.08;;;;;20.50;99845.00;;;;2071639;28;20224;-74
2023/04/02 01:16:05;;;;;;;1.77;1.27;;;;;20.50;99878.00;;;;2071749;28;20203;-74
2023/04/02 01:17:18;;;;;;;1.50;1.40;;;;;20.50;99882.00;;;;2070932;28;20264;-74
2023/04/02 01:18:30;;;;;;;1.60;1.50;;;;;20.50;99880.00;;;;2072696;28;20221;-74
2023/04/02 01:19:45;;;;;;;1.67;1.45;;;;;20.50;99887.00;;;;2071067;28;20249;-74
2023/04/02 01:21:00;;;;;;;1.33;1.23;;;;;20.50;99883.00;;;;2071871;28;20217;-74
2023/04/02 01:22:06;;;;;;;3.78;1.20;;;;;20.50;99893.00;;;;2057820;28;20765;-74
2023/04/02 01:23:43;;;;;;;1.30;1.20;;;;;20.50;99883.00;;;;2061218;28;20207;-74
2023/04/02 01:24:44;;;;;;;1.35;1.15;;;;;20.40;99884.00;;;;2076851;28;20697;-74
2023/04/02 01:26:03;;;;;;;1.27;1.17;;;;;20.40;99895.00;;;;2071991;28;20206;-74
2023/04/02 01:27:07;;;;;;;1.23;1.13;;;;;20.40;99909.00;;;;2058600;28;20211;-74
2023/04/02 01:28:30;;;;;;;1.65;1.38;;;;;20.40;99868.00;;;;2057807;28;20223;-74
2023/04/02 01:29:37;;;;;;;1.30;1.00;;;;;20.40;99894.00;;;;2066021;28;20272;-74
2023/04/02 01:30:37;;;;;;;1.52;1.30;;;;;20.40;99904.00;;;;2063296;28;20215;-74
2023/04/02 01:31:37;;;;;;;1.80;1.10;;;;;20.40;99876.00;;;;2071658;28;20657;-75
2023/04/02 01:32:38;;;;;;;1.50;1.40;;;;;20.40;99907.00;;;;2063796;28;20211;-75
2023/04/02 01:33:38;;;;;;;2.03;1.20;;;;;20.40;99907.00;;;;2071131;28;20214;-74
2023/04/02 01:34:38;;;;;;;1.10;1.00;;;;;20.40;99917.00;;;;2055619;28;20691;-74
2023/04/02 01:35:40;;;;;;;1.50;1.13;;;;;20.40;99903.00;;;;2055171;28;20207;-74
2023/04/02 01:37:07;;;;;;;1.20;1.10;;;;;20.40;99920.00;;;;2055883;28;20222;-74
2023/04/02 01:38:17;;;;;;;1.45;1.10;;;;;20.40;99909.00;;;;2055872;28;20223;-74
2023/04/02 01:39:30;;;;;;;1.30;1.17;;;;;20.40;99912.00;;;;2071631;28;20692;-74
2023/04/02 01:40:39;;;;;;;1.27;1.05;;;;;20.40;99920.00;;;;2069360;28;20252;-74
2023/04/02 01:42:13;;;;;;;1.20;1.10;;;;;20.40;99928.00;;;;2078223;28;20217;-74
2023/04/02 01:43:16;;;;;;;1.10;0.98;;;;;20.40;99927.00;;;;2071195;28;20206;-74
2023/04/02 01:44:45;;;;;;;2.55;1.20;;;;;20.40;99934.00;;;;2072537;28;20218;-74
2023/04/02 01:45:45;;;;;;;1.50;1.23;;;;;20.40;99933.00;;;;2069714;28;20198;-74
2023/04/02 01:46:47;;;;;;;1.20;1.10;;;;;20.40;99933.00;;;;2071289;28;20681;-74
2023/04/02 01:47:48;;;;;;;0.80;0.75;;;;;20.40;99937.00;;;;2070459;28;20305;-74
2023/04/02 01:48:48;;;;;;;0.93;0.80;;;;;20.40;99873.00;;;;2071027;28;20237;-74
2023/04/02 01:49:48;;;;;;;1.30;1.20;;;;;20.40;99943.00;;;;2070454;28;20473;-73
2023/04/02 01:50:50;;;;;;;1.33;1.10;;;;;20.40;99941.00;;;;2072129;28;20218;-74
2023/04/02 01:51:52;;;;;;;1.20;1.10;;;;;20.40;99948.00;;;;2070415;28;20221;-74
2023/04/02 01:52:54;;;;;;;1.08;0.90;;;;;20.40;99938.00;;;;2071460;28;20315;-74
2023/04/02 01:53:55;;;;;;;1.00;0.85;;;;;20.40;99943.00;;;;2063228;28;20223;-74
2023/04/02 01:54:56;;;;;;;1.10;1.00;;;;;20.30;99951.00;;;;2061644;28;20277;-73
2023/04/02 01:55:58;;;;;;;0.80;0.80;;;;;20.30;99947.00;;;;2071393;28;20237;-74
2023/04/02 01:56:58;;;;;;;1.00;0.90;;;;;20.30;99943.00;;;;2073543;28;20226;-74
2023/04/02 01:57:59;;;;;;;1.30;1.13;;;;;20.30;99944.00;;;;2071719;28;20580;-74
2023/04/02 01:59:01;;;;;;;1.17;1.00;;;;;20.40;99955.00;;;;2070772;28;20701;-74
2023/04/02 02:00:08;;;;;;;1.00;0.82;;;;;20.40;99948.00;;;;2072178;28;20244;-75
2023/04/02 02:01:18;;;;;;;2.35;1.00;;;;;20.30;99944.00;;;;2071071;28;20214;-74
2023/04/02 02:02:20;;;;;;;1.27;1.13;;;;;20.40;99940.00;;;;2070920;28;20221;-74
2023/04/02 02:03:20;;;;;;;1.25;1.00;;;;;20.40;99960.00;;;;2055395;28;20219;-73
2023/04/02 02:04:21;;;;;;;0.80;0.77;;;;;20.30;99965.00;;;;2054945;28;20695;-74
2023/04/02 02:05:22;;;;;;;1.20;1.10;;;;;20.30;99964.00;;;;2063366;28;20710;-74
2023/04/02 02:06:22;;;;;;;1.10;1.00;;;;;20.40;99961.00;;;;2067406;28;20717;-74
2023/04/02 02:07:23;;;;;;;1.00;0.90;;;;;20.30;99966.00;;;;2063035;28;20561;-74
2023/04/02 02:08:40;;;;;;;1.10;0.83;;;;;20.30;99959.00;;;;2062007;28;20227;-73
2023/04/02 02:09:40;;;;;;;1.00;0.85;;;;;20.30;99964.00;;;;2079245;28;20692;-74
2023/04/02 02:10:41;;;;;;;0.90;0.70;;;;;20.30;99927.00;;;;2069334;28;20206;-74
2023/04/02 02:11:41;;;;;;;1.47;1.23;;;;;20.30;99972.00;;;;2067947;28;20261;-74
2023/04/02 02:12:42;;;;;;;1.00;0.77;;;;;20.30;99969.00;;;;2071483;28;20234;-74
2023/04/02 02:13:46;;;;;;;1.17;1.07;;;;;20.30;99975.00;;;;2070477;28;20237;-75
2023/04/02 02:14:48;;;;;;;1.40;1.17;;;;;20.30;99984.00;;;;2072041;28;20213;-74
2023/04/02 02:15:48;;;;;;;0.90;0.73;;;;;20.30;99981.00;;;;2071238;28;20214;-74
2023/04/02 02:16:49;;;;;;;0.93;0.83;;;;;20.30;99958.00;;;;2070989;28;20317;-74
2023/04/02 02:17:49;;;;;;;1.53;1.30;;;;;20.30;99990.00;;;;2070512;28;20206;-74
2023/04/02 02:18:58;;;;;;;1.10;0.97;;;;;20.30;99984.00;;;;2070994;28;20812;-74
2023/04/02 02:19:58;;;;;;;1.00;0.90;;;;;20.30;99982.00;;;;2063085;28;20297;-74
2023/04/02 02:20:58;;;;;;;0.80;0.80;;;;;20.30;99986.00;;;;2063156;28;20219;-74
2023/04/02 02:22:15;;;;;;;1.03;0.93;;;;;20.30;99986.00;;;;2070864;28;20296;-74
2023/04/02 02:23:16;;;;;;;0.90;0.73;;;;;20.30;99978.00;;;;2065069;28;20223;-74
2023/04/02 02:24:24;;;;;;;1.30;1.00;;;;;20.30;99997.00;;;;2064268;28;20207;-74
2023/04/02 02:25:29;;;;;;;1.38;1.02;;;;;20.30;99993.00;;;;2062292;28;20241;-74
2023/04/02 02:26:30;;;;;;;1.10;1.00;;;;;20.30;99990.00;;;;2047509;28;20635;-74
2023/04/02 02:27:54;;;;;;;0.90;0.83;;;;;20.30;99988.00;;;;2052029;28;20215;-74
2023/04/02 02:28:55;;;;;;;1.00;0.88;;;;;20.30;99994.00;;;;2066502;28;20935;-74
2023/04/02 02:29:59;;;;;;;0.95;0.82;;;;;20.30;100005.00;;;;2070425;28;20264;-74
2023/04/02 02:31:01;;;;;;;0.90;0.70;;;;;20.30;100003.00;;;;2063125;28;20710;-74
2023/04/02 02:32:01;;;;;;;0.85;0.70;;;;;20.30;100007.00;;;;2060262;28;20629;-73
2023/04/02 02:33:02;;;;;;;1.00;0.90;;;;;20.30;100005.00;;;;2063133;28;20256;-74
2023/04/02 02:34:05;;;;;;;0.83;0.80;;;;;20.20;99980.00;;;;2067862;28;20234;-74
2023/04/02 02:35:27;;;;;;;1.05;0.95;;;;;20.30;100013.00;;;;2076964;28;20220;-74
2023/04/02 02:36:32;;;;;;;1.13;1.00;;;;;20.20;100008.00;;;;2064159;28;20765;-74
2023/04/02 02:37:35;;;;;;;1.35;0.90;;;;;20.30;99990.00;;;;2062681;28;20215;-74
2023/04/02 02:38:41;;;;;;;1.30;1.00;;;;;20.20;100018.00;;;;2057806;28;20607;-74
2023/04/02 02:39:43;;;;;;;1.00;0.82;;;;;20.30;100015.00;;;;2063861;28;20250;-74
2023/04/02 02:40:43;;;;;;;1.10;1.00;;;;;20.20;99984.00;;;;2063147;28;20682;-74
2023/04/02 02:41:50;;;;;;;1.10;0.80;;;;;20.20;100032.00;;;;2053888;28;20270;-74
2023/04/02 02:42:51;;;;;;;1.10;0.75;;;;;20.20;100028.00;;;;2063702;28;20254;-74
2023/04/02 02:44:27;;;;;;;0.95;0.85;;;;;20.20;100028.00;;;;2053524;28;20720;-74
2023/04/02 02:45:29;;;;;;;0.90;0.80;;;;;20.20;100032.00;;;;2039945;28;20216;-74
2023/04/02 02:46:29;;;;;;;1.10;0.75;;;;;20.20;100031.00;;;;2070775;28;20308;-74
2023/04/02 02:47:31;;;;;;;0.97;0.83;;;;;20.20;100033.00;;;;2070975;28;20210;-74
2023/04/02 02:48:34;;;;;;;1.45;0.82;;;;;20.20;100035.00;;;;2069997;28;20577;-73
2023/04/02 02:49:37;;;;;;;0.85;0.85;;;;;20.20;100038.00;;;;2070895;28;20210;-74
2023/04/02 02:50:37;;;;;;;1.00;0.90;;;;;20.20;100038.00;;;;2069659;28;20237;-74
2023/04/02 02:51:52;;;;;;;1.00;0.80;;;;;20.20;100043.00;;;;2062389;28;20253;-74
2023/04/02 02:52:54;;;;;;;1.15;0.90;;;;;20.20;100043.00;;;;2069452;28;20743;-74
2023/04/02 02:53:58;;;;;;;0.80;0.80;;;;;20.20;100041.00;;;;2062915;28;20233;-74
2023/04/02 02:55:00;;;;;;;1.00;0.90;;;;;20.20;100019.00;;;;2070578;28;20328;-73
2023/04/02 02:56:00;;;;;;;0.90;0.80;;;;;20.20;100048.00;;;;2070053;28;20210;-74
2023/04/02 02:57:02;;;;;;;1.00;0.90;;;;;20.20;100053.00;;;;2058310;28;20220;-74
2023/04/02 02:58:27;;;;;;;1.08;0.88;;;;;20.20;100056.00;;;;2059973;28;20203;-74
2023/04/02 02:59:28;;;;;;;1.17;0.65;;;;;20.20;100052.00;;;;2059616;28;20747;-74
2023/04/02 03:00:29;;;;;;;0.90;0.80;;;;;20.20;100059.00;;;;2070211;28;20220;-74
2023/04/02 03:01:29;;;;;;;0.90;0.77;;;;;20.20;100059.00;;;;2071063;28;20293;-74
2023/04/02 03:02:29;;;;;;;1.00;0.87;;;;;20.20;100062.00;;;;2069689;28;20238;-74
2023/04/02 03:03:31;;;;;;;1.57;0.80;;;;;20.20;100067.00;;;;2054961;28;20239;-74
2023/04/02 03:04:34;;;;;;;0.82;0.70;;;;;20.20;100067.00;;;;2054710;28;20219;-74
2023/04/02 03:05:35;;;;;;;1.10;1.00;;;;;20.20;100061.00;;;;2070891;28;20206;-74
2023/04/02 03:06:35;;;;;;;1.13;1.00;;;;;20.20;100073.00;;;;2070744;28;20214;-74
2023/04/02 03:07:36;;;;;;;1.00;0.83;;;;;20.20;100075.00;;;;2071251;28;20210;-74
2023/04/02 03:08:42;;;;;;;1.47;0.90;;;;;20.20;100070.00;;;;2062823;28;20261;-75
2023/04/02 03:09:48;;;;;;;1.35;0.85;;;;;20.20;100070.00;;;;2064785;28;20583;-74
2023/04/02 03:10:59;;;;;;;1.10;0.90;;;;;20.20;100077.00;;;;2071363;28;20213;-74
2023/04/02 03:12:10;;;;;;;0.80;0.70;;;;;20.10;100078.00;;;;2070259;28;20226;-73
2023/04/02 03:13:26;;;;;;;1.33;0.80;;;;;20.20;100075.00;;;;2058248;28;20219;-73
2023/04/02 03:14:37;;;;;;;1.33;1.00;;;;;20.10;100087.00;;;;2054561;28;20237;-73
2023/04/02 03:15:41;;;;;;;1.02;0.93;;;;;20.20;100089.00;;;;2056311;28;20265;-73
2023/04/02 03:16:44;;;;;;;1.02;0.93;;;;;20.20;100086.00;;;;2054112;28;20259;-73
2023/04/02 03:18:02;;;;;;;1.25;1.00;;;;;20.20;100047.00;;;;2039559;29;20228;-73
2023/04/02 03:19:23;;;;;;;0.80;0.70;;;;;20.10;100105.00;;;;2043412;28;20225;-73
2023/04/02 03:20:54;;;;;;;1.02;0.80;;;;;20.20;100105.00;;;;2059526;28;20215;-73
2023/04/02 03:22:02;;;;;;;1.10;0.98;;;;;20.10;100097.00;;;;2050737;28;20255;-73
2023/04/02 03:23:04;;;;;;;0.70;0.70;;;;;20.10;100103.00;;;;2049199;28;20701;-73
2023/04/02 03:24:12;;;;;;;0.80;0.60;;;;;20.10;100105.00;;;;2059074;28;20211;-73
2023/04/02 03:25:27;;;;;;;0.90;0.68;;;;;20.20;100098.00;;;;2064000;28;20272;-73
2023/04/02 03:26:39;;;;;;;1.10;0.80;;;;;20.20;100115.00;;;;2068767;28;20599;-73
2023/04/02 03:27:41;;;;;;;0.90;0.70;;;;;19.90;100117.00;;;;2072402;28;20294;-73
2023/04/02 03:28:46;;;;;;;1.10;0.90;;;;;20.10;100117.00;;;;2069455;28;20220;-73
2023/04/02 03:30:04;;;;;;;1.00;0.90;;;;;20.10;100096.00;;;;2055559;28;20225;-74
2023/04/02 03:31:17;;;;;;;1.20;1.00;;;;;20.10;100125.00;;;;2055797;28;20272;-73
2023/04/02 03:32:28;;;;;;;1.10;1.00;;;;;20.10;100131.00;;;;2059493;28;20217;-73
2023/04/02 03:33:34;;;;;;;0.90;0.70;;;;;20.10;100135.00;;;;2070643;28;20714;-73
2023/04/02 03:34:41;;;;;;;1.27;0.80;;;;;20.10;100132.00;;;;2070717;28;20681;-73
2023/04/02 03:35:53;;;;;;;1.05;0.85;;;;;20.10;100140.00;;;;2063088;28;20571;-74
2023/04/02 03:36:57;;;;;;;1.85;0.75;;;;;20.10;100142.00;;;;2070954;28;20226;-74
2023/04/02 03:38:01;;;;;;;1.27;0.90;;;;;20.10;100150.00;;;;2070895;28;20218;-73
2023/04/02 03:39:18;;;;;;;1.05;0.77;;;;;20.10;100148.00;;;;2071008;28;20285;-73
2023/04/02 03:40:38;;;;;;;1.15;1.02;;;;;20.10;100158.00;;;;2070152;28;20221;-73
2023/04/02 03:41:43;;;;;;;1.30;1.02;;;;;20.10;100149.00;;;;2065163;28;20219;-73
2023/04/02 03:42:51;;;;;;;1.02;0.95;;;;;20.10;100152.00;;;;2062643;28;20219;-74
2023/04/02 03:43:59;;;;;;;0.90;0.80;;;;;20.00;100168.00;;;;2057805;28;20208;-73
2023/04/02 03:45:03;;;;;;;1.10;0.93;;;;;20.10;100133.00;;;;2062235;28;20576;-73
2023/04/02 03:46:30;;;;;;;1.00;0.70;;;;;20.10;100171.00;;;;2063346;28;20713;-74
2023/04/02 03:47:36;;;;;;;2.08;1.10;;;;;20.10;100134.00;;;;2056907;28;20693;-74
2023/04/02 03:48:39;;;;;;;1.23;1.10;;;;;20.10;100169.00;;;;2070101;28;20256;-73
2023/04/02 03:49:45;;;;;;;0.80;0.63;;;;;20.10;100173.00;;;;2070512;28;20258;-73
2023/04/02 03:51:06;;;;;;;1.23;1.10;;;;;20.10;100169.00;;;;2070017;28;20264;-74
2023/04/02 03:52:10;;;;;;;1.67;1.13;;;;;20.10;100144.00;;;;2062864;28;20211;-74
2023/04/02 03:53:11;;;;;;;1.10;0.90;;;;;20.00;100173.00;;;;2057307;28;20734;-74
2023/04/02 03:54:13;;;;;;;1.00;0.80;;;;;20.00;100186.00;;;;2056821;28;20219;-73
2023/04/02 03:55:20;;;;;;;1.05;0.95;;;;;20.00;100175.00;;;;2054910;28;20286;-73
2023/04/02 03:56:27;;;;;;;1.50;1.13;;;;;20.00;100188.00;;;;2065079;28;20245;-74
2023/04/02 03:57:42;;;;;;;1.05;0.95;;;;;20.00;100183.00;;;;2062945;28;20210;-73
2023/04/02 03:58:47;;;;;;;1.83;0.90;;;;;20.00;100176.00;;;;2057232;28;20216;-74
2023/04/02 04:00:19;;;;;;;1.23;0.88;;;;;20.00;100177.00;;;;2050761;28;20219;-74
2023/04/02 04:01:25;;;;;;;0.90;0.80;;;;;20.00;100193.00;;;;2057082;28;20297;-74
2023/04/02 04:02:25;;;;;;;1.85;0.95;;;;;20.00;100196.00;;;;2063356;28;20548;-73
2023/04/02 04:03:31;;;;;;;1.00;0.90;;;;;20.00;100201.00;;;;2069791;28;20229;-73
2023/04/02 04:04:31;;;;;;;1.27;0.88;;;;;20.00;100203.00;;;;2070781;28;20217;-73
2023/04/02 04:05:34;;;;;;;1.43;0.93;;;;;20.00;100205.00;;;;2064782;28;20699;-73
2023/04/02 04:06:35;;;;;;;1.10;0.80;;;;;20.00;100198.00;;;;2062904;28;20223;-74
2023/04/02 04:07:39;;;;;;;1.23;0.93;;;;;20.00;100216.00;;;;2060707;28;20235;-74
2023/04/02 04:08:54;;;;;;;1.00;0.90;;;;;20.00;100207.00;;;;2054195;28;20698;-73
2023/04/02 04:09:54;;;;;;;1.10;1.00;;;;;20.00;100222.00;;;;2070789;28;20213;-72
2023/04/02 04:10:56;;;;;;;1.27;1.17;;;;;20.00;100216.00;;;;2070122;28;20222;-74
2023/04/02 04:12:23;;;;;;;1.10;1.00;;;;;20.00;100213.00;;;;2070508;28;20225;-74
2023/04/02 04:13:49;;;;;;;0.80;0.75;;;;;20.00;100216.00;;;;2061258;28;20214;-74
2023/04/02 04:15:15;;;;;;;1.70;0.90;;;;;20.00;100220.00;;;;2065347;28;20225;-73
2023/04/02 04:16:17;;;;;;;1.15;0.95;;;;;20.00;100224.00;;;;2070405;28;20210;-73
2023/04/02 04:17:33;;;;;;;1.45;1.08;;;;;20.00;100234.00;;;;2069839;28;20688;-74
2023/04/02 04:18:47;;;;;;;1.77;1.00;;;;;20.00;100234.00;;;;2070954;28;20209;-73
2023/04/02 04:19:53;;;;;;;1.25;1.15;;;;;20.00;100236.00;;;;2069642;28;20218;-74
2023/04/02 04:21:05;;;;;;;1.35;1.20;;;;;20.00;100219.00;;;;2070715;28;20237;-74
2023/04/02 04:22:29;;;;;;;1.25;0.93;;;;;20.00;100205.00;;;;2069106;28;20220;-74
2023/04/02 04:23:31;;;;;;;1.30;1.20;;;;;20.00;100215.00;;;;2071026;28;20218;-74
2023/04/02 04:24:31;;;;;;;1.60;1.50;;;;;20.00;100235.00;;;;2069764;28;20268;-74
2023/04/02 04:25:32;;;;;;;1.20;1.00;;;;;19.90;100236.00;;;;2062734;28;20300;-74
2023/04/02 04:27:19;;;;;;;1.27;1.17;;;;;19.90;100251.00;;;;2064309;28;20219;-73
2023/04/02 04:28:26;;;;;;;1.25;1.15;;;;;19.90;100252.00;;;;2054461;28;20211;-74
2023/04/02 04:29:45;;;;;;;1.20;1.00;;;;;20.00;100256.00;;;;2061670;28;20206;-74
2023/04/02 04:30:50;;;;;;;1.40;1.20;;;;;20.00;100249.00;;;;2053374;28;20223;-74
2023/04/02 04:31:54;;;;;;;1.20;1.10;;;;;20.00;100258.00;;;;2053422;28;20370;-74
2023/04/02 04:33:00;;;;;;;2.08;1.42;;;;;20.00;100227.00;;;;2055168;28;20211;-71
2023/04/02 04:34:11;;;;;;;4.53;1.40;;;;;19.90;100262.00;;;;2053193;28;20599;-73
2023/04/02 04:35:18;;;;;;;1.50;1.30;;;;;20.00;100270.00;;;;2056173;28;20306;-76
2023/04/02 04:36:27;;;;;;;2.45;1.15;;;;;20.00;100272.00;;;;2053780;28;20235;-71
2023/04/02 04:37:32;;;;;;;2.28;1.20;;;;;20.00;100278.00;;;;2054646;28;20216;-74
2023/04/02 04:38:38;;;;;;;2.15;1.23;;;;;19.90;100266.00;;;;2053932;28;20239;-74
2023/04/02 04:39:48;;;;;;;1.77;1.10;;;;;20.00;100276.00;;;;2062135;28;20297;-73
2023/04/02 04:40:52;;;;;;;2.13;1.17;;;;;20.00;100273.00;;;;2064186;28;20740;-76
2023/04/02 04:41:53;;;;;;;1.58;1.15;;;;;20.00;100247.00;;;;2061945;28;20209;-73
2023/04/02 04:42:55;;;;;;;2.07;1.30;;;;;20.10;100261.00;;;;2062435;28;20219;-74
2023/04/02 04:44:24;;;;;;;1.40;0.80;;;;;20.10;100282.00;;;;2062904;28;20241;-70
2023/04/02 04:45:35;;;;;;;4.13;2.42;;;;;20.10;100275.00;;;;2069475;28;20210;-72
2023/04/02 04:46:41;;;;;;;9.50;6.82;;;;;20.10;100281.00;;;;2061163;28;20226;-71
2023/04/02 04:47:47;;;;;;;31.90;19.48;;;;;20.10;100280.00;;;;2056007;28;20210;-72
2023/04/02 04:48:57;;;;;;;55.63;32.53;;;;;20.20;100288.00;;;;2047257;28;20779;-72
2023/04/02 04:50:07;;;;;;;51.88;34.97;;;;;20.20;100283.00;;;;2057495;28;20292;-73
2023/04/02 04:51:36;;;;;;;75.85;45.88;;;;;20.20;100298.00;;;;2068636;28;20300;-72
2023/04/02 04:52:38;;;;;;;86.70;53.35;;;;;20.20;100293.00;;;;2070239;28;20211;-69
2023/04/02 04:53:49;;;;;;;95.78;57.35;;;;;20.10;100307.00;;;;2070513;28;20214;-71
2023/04/02 04:54:49;;;;;;;81.03;54.60;;;;;20.10;100302.00;;;;2070343;28;20588;-71
2023/04/02 04:55:58;;;;;;;77.67;49.37;;;;;20.20;100307.00;;;;2069834;28;20245;-70
2023/04/02 04:57:00;;;;;;;71.45;45.58;;;;;20.10;100304.00;;;;2077697;28;20291;-74
2023/04/02 04:58:05;;;;;;;73.13;47.53;;;;;20.10;100307.00;;;;2069540;28;20698;-74
2023/04/02 04:59:13;;;;;;;73.63;50.13;;;;;20.10;100313.00;;;;2062700;28;20593;-72
2023/04/02 05:00:37;;;;;;;78.07;45.30;;;;;20.10;100318.00;;;;2062689;28;20250;-74
2023/04/02 05:01:47;;;;;;;60.10;41.72;;;;;20.00;100325.00;;;;2068797;28;20226;-73
2023/04/02 05:02:51;;;;;;;52.92;37.38;;;;;20.00;100333.00;;;;2070079;28;20245;-73
2023/04/02 05:04:05;;;;;;;53.30;38.60;;;;;20.10;100336.00;;;;2070446;28;20257;-72
2023/04/02 05:05:15;;;;;;;60.95;40.70;;;;;20.10;100340.00;;;;2069936;28;20220;-72
2023/04/02 05:06:31;;;;;;;53.10;36.00;;;;;20.10;100340.00;;;;2069783;28;20221;-72
2023/04/02 05:07:35;;;;;;;49.15;37.03;;;;;20.10;100315.00;;;;2068546;28;20248;-73
2023/04/02 05:08:37;;;;;;;53.28;34.60;;;;;20.10;100315.00;;;;2070471;28;20221;-72
2023/04/02 05:10:03;;;;;;;48.35;32.10;;;;;20.10;100348.00;;;;2062151;28;20219;-72
2023/04/02 05:11:13;;;;;;;44.78;32.40;;;;;20.10;100279.00;;;;2049032;28;20218;-72
2023/04/02 05:12:40;;;;;;;42.95;31.60;;;;;20.10;100355.00;;;;2065244;28;20210;-72
2023/04/02 05:13:43;;;;;;;43.50;30.35;;;;;20.10;100354.00;;;;2058094;28;20558;-72
2023/04/02 05:14:52;;;;;;;49.70;29.00;;;;;20.10;100302.00;;;;2062906;28;20293;-73
2023/04/02 05:16:20;;;;;;;41.00;29.08;;;;;20.10;100358.00;;;;2070194;28;20210;-72
2023/04/02 05:17:36;;;;;;;41.55;29.80;;;;;20.10;100365.00;;;;2069637;28;20221;-72
2023/04/02 05:18:39;;;;;;;50.10;31.67;;;;;20.10;100363.00;;;;2069795;28;20601;-72
2023/04/02 05:19:55;;;;;;;51.45;34.63;;;;;20.10;100369.00;;;;2069661;28;20222;-72
2023/04/02 05:21:03;;;;;;;60.53;38.28;;;;;20.10;100368.00;;;;2071574;28;20217;-72
2023/04/02 05:22:24;;;;;;;57.67;38.63;;;;;20.10;100374.00;;;;2065997;28;20238;-72
2023/04/02 05:23:27;;;;;;;58.45;42.83;;;;;20.10;100382.00;;;;2065758;28;20218;-72
2023/04/02 05:24:51;;;;;;;66.75;44.42;;;;;20.20;100378.00;;;;2071713;28;20215;-73
2023/04/02 05:25:54;;;;;;;70.18;47.17;;;;;20.20;100392.00;;;;2074239;28;20209;-72
2023/04/02 05:26:57;;;;;;;76.18;48.67;;;;;20.20;100376.00;;;;2080134;28;20255;-72
2023/04/02 05:28:12;;;;;;;69.10;48.88;;;;;20.20;100383.00;;;;2063826;28;20254;-72
2023/04/02 05:29:16;;;;;;;70.85;51.97;;;;;20.10;100387.00;;;;2059150;28;20250;-72
2023/04/02 05:30:22;;;;;;;75.57;50.17;;;;;20.20;100377.00;;;;2064099;28;20697;-72
2023/04/02 05:31:53;;;;;;;78.18;51.53;;;;;20.20;100385.00;;;;2070850;28;20230;-72
2023/04/02 05:33:06;;;;;;;76.53;49.85;;;;;20.20;100382.00;;;;2070170;28;20210;-72
2023/04/02 05:34:07;;;;;;;73.60;49.53;;;;;20.20;100380.00;;;;2065481;28;20329;-72
2023/04/02 05:35:13;;;;;;;75.30;51.13;;;;;20.20;100406.00;;;;2071758;28;20218;-72
2023/04/02 05:36:22;;;;;;;75.18;50.08;;;;;20.20;100373.00;;;;2070088;28;20225;-72